sensor_id;sensor_type;location;lat;lon;timestamp;P1;durP1;ratioP1;P2;durP2;ratioP2
53503;SDS011;39387;50.998;22.340;2023-04-19T00:01:41;11.00;;;6.28;;
53503;SDS011;39387;50.998;22.340;2023-04-19T00:04:09;9.77;;;6.28;;
53503;SDS011;39387;50.998;22.340;2023-04-19T00:06:37;10.93;;;6.43;;
53503;SDS011;39387;50.998;22.340;2023-04-19T00:09:07;10.68;;;5.90;;
53503;SDS011;39387;50.998;22.340;2023-04-19T00:11:34;9.18;;;5.95;;
53503;SDS011;39387;50.998;22.340;2023-04-19T00:14:01;24.58;;;6.95;;
53503;SDS011;39387;50.998;22.340;2023-04-19T00:16:28;9.27;;;5.75;;
53503;SDS011;39387;50.998;22.340;2023-04-19T00:18:56;10.13;;;6.85;;
53503;SDS011;39387;50.998;22.340;2023-04-19T00:21:23;7.88;;;5.43;;
53503;SDS011;39387;50.998;22.340;2023-04-19T00:23:52;9.40;;;6.28;;
53503;SDS011;39387;50.998;22.340;2023-04-19T00:26:20;8.95;;;6.25;;
53503;SDS011;39387;50.998;22.340;2023-04-19T00:28:47;9.00;;;5.88;;
53503;SDS011;39387;50.998;22.340;2023-04-19T00:31:14;8.43;;;5.70;;
53503;SDS011;39387;50.998;22.340;2023-04-19T00:33:42;9.63;;;5.90;;
53503;SDS011;39387;50.998;22.340;2023-04-19T00:36:09;10.68;;;6.47;;
53503;SDS011;39387;50.998;22.340;2023-04-19T00:38:37;8.93;;;6.07;;
53503;SDS011;39387;50.998;22.340;2023-04-19T00:41:06;12.45;;;6.97;;
53503;SDS011;39387;50.998;22.340;2023-04-19T00:43:33;9.63;;;5.97;;
53503;SDS011;39387;50.998;22.340;2023-04-19T00:46:01;10.75;;;6.45;;
53503;SDS011;39387;50.998;22.340;2023-04-19T00:48:28;7.85;;;5.72;;
53503;SDS011;39387;50.998;22.340;2023-04-19T00:50:56;8.68;;;6.32;;
53503;SDS011;39387;50.998;22.340;2023-04-19T00:53:24;8.68;;;6.07;;
53503;SDS011;39387;50.998;22.340;2023-04-19T00:55:51;7.82;;;5.60;;
53503;SDS011;39387;50.998;22.340;2023-04-19T00:58:21;10.60;;;6.70;;
53503;SDS011;39387;50.998;22.340;2023-04-19T01:00:49;9.02;;;6.25;;
53503;SDS011;39387;50.998;22.340;2023-04-19T01:03:17;11.32;;;6.22;;
53503;SDS011;39387;50.998;22.340;2023-04-19T01:05:44;11.05;;;6.95;;
53503;SDS011;39387;50.998;22.340;2023-04-19T01:08:13;11.52;;;6.72;;
53503;SDS011;39387;50.998;22.340;2023-04-19T01:10:41;11.50;;;7.22;;
53503;SDS011;39387;50.998;22.340;2023-04-19T01:13:08;11.95;;;6.88;;
53503;SDS011;39387;50.998;22.340;2023-04-19T01:15:37;11.70;;;7.03;;
53503;SDS011;39387;50.998;22.340;2023-04-19T01:18:05;11.88;;;7.05;;
53503;SDS011;39387;50.998;22.340;2023-04-19T01:20:32;10.77;;;6.45;;
53503;SDS011;39387;50.998;22.340;2023-04-19T01:23:01;9.00;;;6.28;;
53503;SDS011;39387;50.998;22.340;2023-04-19T01:25:28;11.27;;;6.93;;
53503;SDS011;39387;50.998;22.340;2023-04-19T01:27:55;9.98;;;6.53;;
53503;SDS011;39387;50.998;22.340;2023-04-19T01:30:23;11.15;;;7.60;;
53503;SDS011;39387;50.998;22.340;2023-04-19T01:32:51;10.35;;;6.40;;
53503;SDS011;39387;50.998;22.340;2023-04-19T01:35:18;10.00;;;6.15;;
53503;SDS011;39387;50.998;22.340;2023-04-19T01:37:46;11.05;;;6.95;;
53503;SDS011;39387;50.998;22.340;2023-04-19T01:40:15;10.68;;;6.47;;
53503;SDS011;39387;50.998;22.340;2023-04-19T01:42:42;12.50;;;6.32;;
53503;SDS011;39387;50.998;22.340;2023-04-19T01:45:10;13.00;;;6.60;;
53503;SDS011;39387;50.998;22.340;2023-04-19T01:47:38;11.90;;;6.68;;
53503;SDS011;39387;50.998;22.340;2023-04-19T01:50:06;9.45;;;6.35;;
53503;SDS011;39387;50.998;22.340;2023-04-19T01:52:34;9.27;;;6.40;;
53503;SDS011;39387;50.998;22.340;2023-04-19T01:55:02;10.77;;;7.03;;
53503;SDS011;39387;50.998;22.340;2023-04-19T01:57:31;13.70;;;7.10;;
53503;SDS011;39387;50.998;22.340;2023-04-19T01:59:58;15.10;;;8.48;;
53503;SDS011;39387;50.998;22.340;2023-04-19T02:02:26;10.70;;;7.28;;
53503;SDS011;39387;50.998;22.340;2023-04-19T02:04:54;12.20;;;7.57;;
53503;SDS011;39387;50.998;22.340;2023-04-19T02:07:21;10.65;;;6.60;;
53503;SDS011;39387;50.998;22.340;2023-04-19T02:09:49;11.38;;;7.72;;
53503;SDS011;39387;50.998;22.340;2023-04-19T02:12:16;10.90;;;6.70;;
53503;SDS011;39387;50.998;22.340;2023-04-19T02:14:45;11.43;;;7.15;;
53503;SDS011;39387;50.998;22.340;2023-04-19T02:17:12;14.32;;;7.90;;
53503;SDS011;39387;50.998;22.340;2023-04-19T02:19:40;11.05;;;7.88;;
53503;SDS011;39387;50.998;22.340;2023-04-19T02:22:07;11.57;;;6.78;;
53503;SDS011;39387;50.998;22.340;2023-04-19T02:24:34;10.23;;;7.03;;
53503;SDS011;39387;50.998;22.340;2023-04-19T02:27:02;10.95;;;6.85;;
53503;SDS011;39387;50.998;22.340;2023-04-19T02:29:29;13.77;;;7.10;;
53503;SDS011;39387;50.998;22.340;2023-04-19T02:31:58;11.63;;;7.53;;
53503;SDS011;39387;50.998;22.340;2023-04-19T02:34:26;11.38;;;6.78;;
53503;SDS011;39387;50.998;22.340;2023-04-19T02:36:53;10.55;;;7.30;;
53503;SDS011;39387;50.998;22.340;2023-04-19T02:39:21;10.57;;;7.10;;
53503;SDS011;39387;50.998;22.340;2023-04-19T02:41:48;11.27;;;7.45;;
53503;SDS011;39387;50.998;22.340;2023-04-19T02:44:17;12.35;;;7.65;;
53503;SDS011;39387;50.998;22.340;2023-04-19T02:46:47;10.32;;;6.68;;
53503;SDS011;39387;50.998;22.340;2023-04-19T02:49:16;9.25;;;6.80;;
53503;SDS011;39387;50.998;22.340;2023-04-19T02:51:44;11.77;;;7.82;;
53503;SDS011;39387;50.998;22.340;2023-04-19T02:54:12;10.95;;;7.05;;
53503;SDS011;39387;50.998;22.340;2023-04-19T02:56:39;12.57;;;7.40;;
53503;SDS011;39387;50.998;22.340;2023-04-19T02:59:07;11.93;;;7.00;;
53503;SDS011;39387;50.998;22.340;2023-04-19T03:01:34;15.82;;;7.90;;
53503;SDS011;39387;50.998;22.340;2023-04-19T03:04:02;10.45;;;6.85;;
53503;SDS011;39387;50.998;22.340;2023-04-19T03:06:30;16.20;;;7.57;;
53503;SDS011;39387;50.998;22.340;2023-04-19T03:08:58;11.35;;;7.28;;
53503;SDS011;39387;50.998;22.340;2023-04-19T03:11:25;11.10;;;7.30;;
53503;SDS011;39387;50.998;22.340;2023-04-19T03:13:53;12.07;;;7.72;;
53503;SDS011;39387;50.998;22.340;2023-04-19T03:16:23;12.50;;;7.55;;
53503;SDS011;39387;50.998;22.340;2023-04-19T03:18:51;10.18;;;6.78;;
53503;SDS011;39387;50.998;22.340;2023-04-19T03:21:18;11.52;;;7.47;;
53503;SDS011;39387;50.998;22.340;2023-04-19T03:23:47;10.70;;;7.65;;
53503;SDS011;39387;50.998;22.340;2023-04-19T03:26:14;10.52;;;7.22;;
53503;SDS011;39387;50.998;22.340;2023-04-19T03:28:42;13.27;;;7.78;;
53503;SDS011;39387;50.998;22.340;2023-04-19T03:31:09;11.48;;;7.28;;
53503;SDS011;39387;50.998;22.340;2023-04-19T03:33:37;10.75;;;6.78;;
53503;SDS011;39387;50.998;22.340;2023-04-19T03:36:04;12.20;;;6.88;;
53503;SDS011;39387;50.998;22.340;2023-04-19T03:38:33;12.38;;;7.47;;
53503;SDS011;39387;50.998;22.340;2023-04-19T03:41:01;12.27;;;7.75;;
53503;SDS011;39387;50.998;22.340;2023-04-19T03:43:29;12.73;;;7.50;;
53503;SDS011;39387;50.998;22.340;2023-04-19T03:45:56;11.50;;;7.55;;
53503;SDS011;39387;50.998;22.340;2023-04-19T03:48:25;9.13;;;6.45;;
53503;SDS011;39387;50.998;22.340;2023-04-19T03:50:52;12.13;;;7.20;;
53503;SDS011;39387;50.998;22.340;2023-04-19T03:53:20;11.63;;;7.35;;
53503;SDS011;39387;50.998;22.340;2023-04-19T03:55:47;12.85;;;7.05;;
53503;SDS011;39387;50.998;22.340;2023-04-19T03:58:16;10.48;;;6.93;;
53503;SDS011;39387;50.998;22.340;2023-04-19T04:00:44;13.02;;;7.57;;
53503;SDS011;39387;50.998;22.340;2023-04-19T04:03:11;11.13;;;6.53;;
53503;SDS011;39387;50.998;22.340;2023-04-19T04:05:39;10.75;;;6.28;;
53503;SDS011;39387;50.998;22.340;2023-04-19T04:08:06;10.55;;;6.38;;
53503;SDS011;39387;50.998;22.340;2023-04-19T04:10:34;10.63;;;6.43;;
53503;SDS011;39387;50.998;22.340;2023-04-19T04:13:01;10.27;;;6.38;;
53503;SDS011;39387;50.998;22.340;2023-04-19T04:15:30;12.23;;;6.82;;
53503;SDS011;39387;50.998;22.340;2023-04-19T04:17:58;10.90;;;7.15;;
53503;SDS011;39387;50.998;22.340;2023-04-19T04:20:25;11.50;;;6.70;;
53503;SDS011;39387;50.998;22.340;2023-04-19T04:22:53;10.02;;;6.55;;
53503;SDS011;39387;50.998;22.340;2023-04-19T04:25:20;12.82;;;7.43;;
53503;SDS011;39387;50.998;22.340;2023-04-19T04:27:49;11.40;;;6.43;;
53503;SDS011;39387;50.998;22.340;2023-04-19T04:30:17;10.45;;;6.97;;
53503;SDS011;39387;50.998;22.340;2023-04-19T04:32:46;12.05;;;6.72;;
53503;SDS011;39387;50.998;22.340;2023-04-19T04:35:15;11.18;;;7.20;;
53503;SDS011;39387;50.998;22.340;2023-04-19T04:37:43;11.30;;;6.97;;
53503;SDS011;39387;50.998;22.340;2023-04-19T04:40:10;10.65;;;6.55;;
53503;SDS011;39387;50.998;22.340;2023-04-19T04:42:38;12.90;;;7.55;;
53503;SDS011;39387;50.998;22.340;2023-04-19T04:45:06;12.00;;;6.45;;
53503;SDS011;39387;50.998;22.340;2023-04-19T04:47:35;15.40;;;7.80;;
53503;SDS011;39387;50.998;22.340;2023-04-19T04:50:04;12.73;;;7.72;;
53503;SDS011;39387;50.998;22.340;2023-04-19T04:52:33;14.30;;;8.00;;
53503;SDS011;39387;50.998;22.340;2023-04-19T04:55:00;11.10;;;7.43;;
53503;SDS011;39387;50.998;22.340;2023-04-19T04:57:28;11.60;;;7.38;;
53503;SDS011;39387;50.998;22.340;2023-04-19T04:59:55;12.95;;;7.55;;
53503;SDS011;39387;50.998;22.340;2023-04-19T05:02:23;16.25;;;8.05;;
53503;SDS011;39387;50.998;22.340;2023-04-19T05:04:50;10.68;;;6.78;;
53503;SDS011;39387;50.998;22.340;2023-04-19T05:07:19;12.95;;;7.65;;
53503;SDS011;39387;50.998;22.340;2023-04-19T05:09:47;12.13;;;7.28;;
53503;SDS011;39387;50.998;22.340;2023-04-19T05:12:14;11.38;;;7.25;;
53503;SDS011;39387;50.998;22.340;2023-04-19T05:14:41;13.63;;;7.03;;
53503;SDS011;39387;50.998;22.340;2023-04-19T05:17:09;11.27;;;7.55;;
53503;SDS011;39387;50.998;22.340;2023-04-19T05:19:36;12.85;;;7.43;;
53503;SDS011;39387;50.998;22.340;2023-04-19T05:22:04;13.65;;;7.50;;
53503;SDS011;39387;50.998;22.340;2023-04-19T05:24:33;12.88;;;7.35;;
53503;SDS011;39387;50.998;22.340;2023-04-19T05:27:00;13.13;;;7.35;;
53503;SDS011;39387;50.998;22.340;2023-04-19T05:29:27;11.50;;;7.57;;
53503;SDS011;39387;50.998;22.340;2023-04-19T05:31:56;10.95;;;6.97;;
53503;SDS011;39387;50.998;22.340;2023-04-19T05:34:23;14.07;;;7.53;;
53503;SDS011;39387;50.998;22.340;2023-04-19T05:36:51;13.95;;;7.28;;
53503;SDS011;39387;50.998;22.340;2023-04-19T05:39:18;12.15;;;7.82;;
53503;SDS011;39387;50.998;22.340;2023-04-19T05:41:48;14.75;;;9.63;;
53503;SDS011;39387;50.998;22.340;2023-04-19T05:44:15;12.40;;;7.85;;
53503;SDS011;39387;50.998;22.340;2023-04-19T05:46:43;16.48;;;9.57;;
53503;SDS011;39387;50.998;22.340;2023-04-19T05:49:10;15.52;;;9.27;;
53503;SDS011;39387;50.998;22.340;2023-04-19T05:51:38;13.07;;;7.88;;
53503;SDS011;39387;50.998;22.340;2023-04-19T05:54:05;12.90;;;7.80;;
53503;SDS011;39387;50.998;22.340;2023-04-19T05:56:37;11.15;;;7.03;;
53503;SDS011;39387;50.998;22.340;2023-04-19T05:59:06;12.45;;;7.05;;
53503;SDS011;39387;50.998;22.340;2023-04-19T06:01:36;12.15;;;6.97;;
53503;SDS011;39387;50.998;22.340;2023-04-19T06:04:03;12.25;;;7.18;;
53503;SDS011;39387;50.998;22.340;2023-04-19T06:06:31;11.77;;;7.63;;
53503;SDS011;39387;50.998;22.340;2023-04-19T06:08:58;11.10;;;6.80;;
53503;SDS011;39387;50.998;22.340;2023-04-19T06:11:26;10.48;;;6.47;;
53503;SDS011;39387;50.998;22.340;2023-04-19T06:13:53;11.20;;;6.75;;
53503;SDS011;39387;50.998;22.340;2023-04-19T06:16:22;12.30;;;7.40;;
53503;SDS011;39387;50.998;22.340;2023-04-19T06:18:49;12.07;;;7.57;;
53503;SDS011;39387;50.998;22.340;2023-04-19T06:21:17;13.20;;;7.75;;
53503;SDS011;39387;50.998;22.340;2023-04-19T06:23:44;13.90;;;7.63;;
53503;SDS011;39387;50.998;22.340;2023-04-19T06:26:12;12.85;;;7.30;;
53503;SDS011;39387;50.998;22.340;2023-04-19T06:28:39;11.18;;;7.25;;
53503;SDS011;39387;50.998;22.340;2023-04-19T06:31:06;12.23;;;7.88;;
53503;SDS011;39387;50.998;22.340;2023-04-19T06:33:35;12.50;;;7.55;;
53503;SDS011;39387;50.998;22.340;2023-04-19T06:36:03;14.60;;;8.25;;
53503;SDS011;39387;50.998;22.340;2023-04-19T06:38:31;14.73;;;8.05;;
53503;SDS011;39387;50.998;22.340;2023-04-19T06:40:59;11.88;;;7.68;;
53503;SDS011;39387;50.998;22.340;2023-04-19T06:43:26;17.20;;;8.20;;
53503;SDS011;39387;50.998;22.340;2023-04-19T06:45:57;12.68;;;8.00;;
53503;SDS011;39387;50.998;22.340;2023-04-19T06:48:24;12.30;;;8.23;;
53503;SDS011;39387;50.998;22.340;2023-04-19T06:50:54;11.88;;;7.63;;
53503;SDS011;39387;50.998;22.340;2023-04-19T06:53:21;10.82;;;7.22;;
53503;SDS011;39387;50.998;22.340;2023-04-19T06:55:52;12.40;;;7.32;;
53503;SDS011;39387;50.998;22.340;2023-04-19T06:58:23;11.10;;;6.97;;
53503;SDS011;39387;50.998;22.340;2023-04-19T07:00:50;11.75;;;7.45;;
53503;SDS011;39387;50.998;22.340;2023-04-19T07:03:18;12.15;;;7.13;;
53503;SDS011;39387;50.998;22.340;2023-04-19T07:05:45;10.07;;;6.50;;
53503;SDS011;39387;50.998;22.340;2023-04-19T07:08:14;10.05;;;7.25;;
53503;SDS011;39387;50.998;22.340;2023-04-19T07:10:42;11.20;;;6.93;;
53503;SDS011;39387;50.998;22.340;2023-04-19T07:13:09;10.40;;;7.13;;
53503;SDS011;39387;50.998;22.340;2023-04-19T07:15:37;9.65;;;6.80;;
53503;SDS011;39387;50.998;22.340;2023-04-19T07:18:05;9.68;;;6.63;;
53503;SDS011;39387;50.998;22.340;2023-04-19T07:20:32;10.63;;;7.50;;
53503;SDS011;39387;50.998;22.340;2023-04-19T07:23:00;11.40;;;6.63;;
53503;SDS011;39387;50.998;22.340;2023-04-19T07:25:29;9.50;;;6.47;;
53503;SDS011;39387;50.998;22.340;2023-04-19T07:27:56;7.53;;;5.93;;
53503;SDS011;39387;50.998;22.340;2023-04-19T07:30:24;8.55;;;6.00;;
53503;SDS011;39387;50.998;22.340;2023-04-19T07:32:51;10.40;;;7.00;;
53503;SDS011;39387;50.998;22.340;2023-04-19T07:35:19;10.23;;;6.70;;
53503;SDS011;39387;50.998;22.340;2023-04-19T07:37:46;9.90;;;6.60;;
53503;SDS011;39387;50.998;22.340;2023-04-19T07:40:14;9.35;;;6.90;;
53503;SDS011;39387;50.998;22.340;2023-04-19T07:42:43;9.73;;;6.93;;
53503;SDS011;39387;50.998;22.340;2023-04-19T07:45:11;8.68;;;6.57;;
53503;SDS011;39387;50.998;22.340;2023-04-19T07:47:39;11.02;;;6.63;;
53503;SDS011;39387;50.998;22.340;2023-04-19T07:50:07;10.25;;;6.55;;
53503;SDS011;39387;50.998;22.340;2023-04-19T07:52:35;9.43;;;7.10;;
53503;SDS011;39387;50.998;22.340;2023-04-19T07:55:03;9.75;;;6.55;;
53503;SDS011;39387;50.998;22.340;2023-04-19T07:57:31;12.43;;;7.65;;
53503;SDS011;39387;50.998;22.340;2023-04-19T08:00:02;9.50;;;6.53;;
53503;SDS011;39387;50.998;22.340;2023-04-19T08:02:30;9.23;;;7.05;;
53503;SDS011;39387;50.998;22.340;2023-04-19T08:04:58;10.63;;;7.47;;
53503;SDS011;39387;50.998;22.340;2023-04-19T08:07:26;12.00;;;7.10;;
53503;SDS011;39387;50.998;22.340;2023-04-19T08:09:54;10.25;;;7.45;;
53503;SDS011;39387;50.998;22.340;2023-04-19T08:12:21;11.63;;;7.65;;
53503;SDS011;39387;50.998;22.340;2023-04-19T08:14:48;9.15;;;6.78;;
53503;SDS011;39387;50.998;22.340;2023-04-19T08:17:17;9.68;;;7.22;;
53503;SDS011;39387;50.998;22.340;2023-04-19T08:19:46;9.85;;;6.85;;
53503;SDS011;39387;50.998;22.340;2023-04-19T08:22:14;10.32;;;7.20;;
53503;SDS011;39387;50.998;22.340;2023-04-19T08:24:42;10.52;;;7.03;;
53503;SDS011;39387;50.998;22.340;2023-04-19T08:27:09;9.82;;;7.07;;
53503;SDS011;39387;50.998;22.340;2023-04-19T08:29:37;11.07;;;7.82;;
53503;SDS011;39387;50.998;22.340;2023-04-19T08:32:05;9.68;;;7.53;;
53503;SDS011;39387;50.998;22.340;2023-04-19T08:34:35;10.65;;;7.57;;
53503;SDS011;39387;50.998;22.340;2023-04-19T08:37:02;11.82;;;8.00;;
53503;SDS011;39387;50.998;22.340;2023-04-19T08:39:30;9.90;;;7.68;;
53503;SDS011;39387;50.998;22.340;2023-04-19T08:41:58;10.27;;;7.85;;
53503;SDS011;39387;50.998;22.340;2023-04-19T08:44:30;9.52;;;7.25;;
53503;SDS011;39387;50.998;22.340;2023-04-19T08:46:57;10.82;;;7.78;;
53503;SDS011;39387;50.998;22.340;2023-04-19T08:49:26;9.48;;;7.35;;
53503;SDS011;39387;50.998;22.340;2023-04-19T08:51:56;7.90;;;6.40;;
53503;SDS011;39387;50.998;22.340;2023-04-19T08:54:24;8.82;;;6.90;;
53503;SDS011;39387;50.998;22.340;2023-04-19T08:56:51;8.57;;;5.97;;
53503;SDS011;39387;50.998;22.340;2023-04-19T08:59:19;8.63;;;6.20;;
53503;SDS011;39387;50.998;22.340;2023-04-19T09:01:46;9.70;;;8.05;;
53503;SDS011;39387;50.998;22.340;2023-04-19T09:04:14;10.07;;;6.97;;
53503;SDS011;39387;50.998;22.340;2023-04-19T09:06:41;9.00;;;7.20;;
53503;SDS011;39387;50.998;22.340;2023-04-19T09:09:16;9.75;;;7.55;;
53503;SDS011;39387;50.998;22.340;2023-04-19T09:11:45;7.28;;;6.55;;
53503;SDS011;39387;50.998;22.340;2023-04-19T09:14:13;9.38;;;7.10;;
53503;SDS011;39387;50.998;22.340;2023-04-19T09:16:41;10.45;;;7.60;;
53503;SDS011;39387;50.998;22.340;2023-04-19T09:19:09;10.35;;;7.07;;
53503;SDS011;39387;50.998;22.340;2023-04-19T09:21:37;9.75;;;7.13;;
53503;SDS011;39387;50.998;22.340;2023-04-19T09:24:05;10.68;;;7.35;;
53503;SDS011;39387;50.998;22.340;2023-04-19T09:26:34;12.07;;;8.02;;
53503;SDS011;39387;50.998;22.340;2023-04-19T09:29:02;9.52;;;7.60;;
53503;SDS011;39387;50.998;22.340;2023-04-19T09:31:31;11.52;;;8.18;;
53503;SDS011;39387;50.998;22.340;2023-04-19T09:34:10;11.18;;;7.70;;
53503;SDS011;39387;50.998;22.340;2023-04-19T09:36:38;11.73;;;8.05;;
53503;SDS011;39387;50.998;22.340;2023-04-19T09:39:06;11.07;;;7.85;;
53503;SDS011;39387;50.998;22.340;2023-04-19T09:41:36;10.02;;;7.10;;
53503;SDS011;39387;50.998;22.340;2023-04-19T09:44:17;10.55;;;7.82;;
53503;SDS011;39387;50.998;22.340;2023-04-19T09:46:45;10.68;;;7.95;;
53503;SDS011;39387;50.998;22.340;2023-04-19T09:49:14;10.85;;;7.53;;
53503;SDS011;39387;50.998;22.340;2023-04-19T09:51:44;10.82;;;7.35;;
53503;SDS011;39387;50.998;22.340;2023-04-19T09:54:12;9.02;;;7.25;;
53503;SDS011;39387;50.998;22.340;2023-04-19T09:56:42;9.30;;;6.97;;
53503;SDS011;39387;50.998;22.340;2023-04-19T09:59:10;11.27;;;7.50;;
53503;SDS011;39387;50.998;22.340;2023-04-19T10:01:37;10.75;;;7.78;;
53503;SDS011;39387;50.998;22.340;2023-04-19T10:04:06;10.20;;;7.55;;
53503;SDS011;39387;50.998;22.340;2023-04-19T10:06:33;9.25;;;8.25;;
53503;SDS011;39387;50.998;22.340;2023-04-19T10:09:01;9.52;;;8.07;;
53503;SDS011;39387;50.998;22.340;2023-04-19T10:11:30;9.65;;;7.35;;
53503;SDS011;39387;50.998;22.340;2023-04-19T10:14:05;11.80;;;8.35;;
53503;SDS011;39387;50.998;22.340;2023-04-19T10:16:33;13.43;;;9.05;;
53503;SDS011;39387;50.998;22.340;2023-04-19T10:19:01;10.57;;;8.32;;
53503;SDS011;39387;50.998;22.340;2023-04-19T10:21:30;12.07;;;9.05;;
53503;SDS011;39387;50.998;22.340;2023-04-19T10:23:58;10.38;;;7.82;;
53503;SDS011;39387;50.998;22.340;2023-04-19T10:26:25;11.07;;;8.55;;
53503;SDS011;39387;50.998;22.340;2023-04-19T10:28:53;11.98;;;9.20;;
53503;SDS011;39387;50.998;22.340;2023-04-19T10:31:23;12.95;;;9.93;;
53503;SDS011;39387;50.998;22.340;2023-04-19T10:33:51;14.38;;;10.95;;
53503;SDS011;39387;50.998;22.340;2023-04-19T10:36:19;13.27;;;10.07;;
53503;SDS011;39387;50.998;22.340;2023-04-19T10:38:48;13.85;;;9.30;;
53503;SDS011;39387;50.998;22.340;2023-04-19T10:41:16;11.27;;;8.60;;
53503;SDS011;39387;50.998;22.340;2023-04-19T10:43:45;11.05;;;8.85;;
53503;SDS011;39387;50.998;22.340;2023-04-19T10:46:14;9.35;;;8.18;;
53503;SDS011;39387;50.998;22.340;2023-04-19T10:48:50;10.60;;;8.43;;
53503;SDS011;39387;50.998;22.340;2023-04-19T10:51:22;11.10;;;8.38;;
53503;SDS011;39387;50.998;22.340;2023-04-19T10:53:53;10.30;;;8.13;;
53503;SDS011;39387;50.998;22.340;2023-04-19T10:59:30;10.88;;;8.57;;
53503;SDS011;39387;50.998;22.340;2023-04-19T11:01:58;10.35;;;8.82;;
53503;SDS011;39387;50.998;22.340;2023-04-19T11:07:26;10.75;;;7.50;;
53503;SDS011;39387;50.998;22.340;2023-04-19T11:09:54;10.82;;;8.65;;
53503;SDS011;39387;50.998;22.340;2023-04-19T11:12:21;11.43;;;8.73;;
53503;SDS011;39387;50.998;22.340;2023-04-19T11:14:50;12.15;;;9.43;;
53503;SDS011;39387;50.998;22.340;2023-04-19T11:17:18;9.45;;;8.02;;
53503;SDS011;39387;50.998;22.340;2023-04-19T11:19:53;10.35;;;7.63;;
53503;SDS011;39387;50.998;22.340;2023-04-19T11:22:28;10.68;;;9.20;;
53503;SDS011;39387;50.998;22.340;2023-04-19T11:25:03;10.07;;;8.35;;
53503;SDS011;39387;50.998;22.340;2023-04-19T11:27:31;9.00;;;7.88;;
53503;SDS011;39387;50.998;22.340;2023-04-19T11:30:02;8.77;;;7.40;;
53503;SDS011;39387;50.998;22.340;2023-04-19T11:32:31;8.52;;;7.03;;
53503;SDS011;39387;50.998;22.340;2023-04-19T11:35:03;9.95;;;7.40;;
53503;SDS011;39387;50.998;22.340;2023-04-19T11:37:34;10.43;;;7.38;;
53503;SDS011;39387;50.998;22.340;2023-04-19T11:40:02;11.52;;;8.98;;
53503;SDS011;39387;50.998;22.340;2023-04-19T11:42:31;10.93;;;8.27;;
53503;SDS011;39387;50.998;22.340;2023-04-19T11:44:59;9.40;;;7.45;;
53503;SDS011;39387;50.998;22.340;2023-04-19T11:47:26;8.93;;;7.28;;
53503;SDS011;39387;50.998;22.340;2023-04-19T11:49:54;9.40;;;7.43;;
53503;SDS011;39387;50.998;22.340;2023-04-19T11:52:22;9.63;;;6.95;;
53503;SDS011;39387;50.998;22.340;2023-04-19T11:54:52;9.80;;;6.93;;
53503;SDS011;39387;50.998;22.340;2023-04-19T11:57:26;10.45;;;7.32;;
53503;SDS011;39387;50.998;22.340;2023-04-19T12:00:01;10.15;;;7.68;;
53503;SDS011;39387;50.998;22.340;2023-04-19T12:02:35;8.98;;;7.00;;
53503;SDS011;39387;50.998;22.340;2023-04-19T12:05:08;9.82;;;7.03;;
53503;SDS011;39387;50.998;22.340;2023-04-19T12:07:37;10.95;;;7.68;;
53503;SDS011;39387;50.998;22.340;2023-04-19T12:10:09;12.95;;;7.38;;
53503;SDS011;39387;50.998;22.340;2023-04-19T12:12:37;10.05;;;7.05;;
53503;SDS011;39387;50.998;22.340;2023-04-19T12:15:06;6.40;;;4.20;;
53503;SDS011;39387;50.998;22.340;2023-04-19T12:17:34;5.28;;;4.32;;
53503;SDS011;39387;50.998;22.340;2023-04-19T12:20:01;3.20;;;1.98;;
53503;SDS011;39387;50.998;22.340;2023-04-19T12:22:29;2.50;;;2.03;;
53503;SDS011;39387;50.998;22.340;2023-04-19T12:24:57;2.25;;;1.88;;
53503;SDS011;39387;50.998;22.340;2023-04-19T12:27:26;3.50;;;1.73;;
53503;SDS011;39387;50.998;22.340;2023-04-19T12:29:53;3.30;;;1.60;;
53503;SDS011;39387;50.998;22.340;2023-04-19T12:32:23;1.73;;;1.52;;
53503;SDS011;39387;50.998;22.340;2023-04-19T12:34:51;2.10;;;1.40;;
53503;SDS011;39387;50.998;22.340;2023-04-19T12:37:18;2.20;;;1.30;;
53503;SDS011;39387;50.998;22.340;2023-04-19T12:39:45;2.28;;;1.50;;
53503;SDS011;39387;50.998;22.340;2023-04-19T12:42:12;2.85;;;1.30;;
53503;SDS011;39387;50.998;22.340;2023-04-19T12:44:41;1.90;;;1.40;;
53503;SDS011;39387;50.998;22.340;2023-04-19T12:47:09;1.60;;;1.25;;
53503;SDS011;39387;50.998;22.340;2023-04-19T12:49:36;2.58;;;1.23;;
53503;SDS011;39387;50.998;22.340;2023-04-19T12:52:04;1.70;;;1.38;;
53503;SDS011;39387;50.998;22.340;2023-04-19T12:54:32;1.92;;;1.20;;
53503;SDS011;39387;50.998;22.340;2023-04-19T12:56:59;3.05;;;1.58;;
53503;SDS011;39387;50.998;22.340;2023-04-19T12:59:27;2.17;;;1.10;;
53503;SDS011;39387;50.998;22.340;2023-04-19T13:01:56;2.45;;;1.20;;
53503;SDS011;39387;50.998;22.340;2023-04-19T13:04:23;1.75;;;1.30;;
53503;SDS011;39387;50.998;22.340;2023-04-19T13:06:50;3.03;;;1.35;;
53503;SDS011;39387;50.998;22.340;2023-04-19T13:09:18;1.95;;;1.10;;
53503;SDS011;39387;50.998;22.340;2023-04-19T13:11:45;2.28;;;1.10;;
53503;SDS011;39387;50.998;22.340;2023-04-19T13:14:12;1.65;;;1.30;;
53503;SDS011;39387;50.998;22.340;2023-04-19T13:16:40;2.78;;;1.70;;
53503;SDS011;39387;50.998;22.340;2023-04-19T13:19:08;2.65;;;1.20;;
53503;SDS011;39387;50.998;22.340;2023-04-19T13:21:35;3.45;;;1.85;;
53503;SDS011;39387;50.998;22.340;2023-04-19T13:24:03;3.95;;;1.80;;
53503;SDS011;39387;50.998;22.340;2023-04-19T13:26:31;2.60;;;1.40;;
53503;SDS011;39387;50.998;22.340;2023-04-19T13:28:59;2.97;;;1.10;;
53503;SDS011;39387;50.998;22.340;2023-04-19T13:31:26;4.15;;;1.40;;
53503;SDS011;39387;50.998;22.340;2023-04-19T13:33:53;2.05;;;1.60;;
53503;SDS011;39387;50.998;22.340;2023-04-19T13:36:22;3.83;;;1.90;;
53503;SDS011;39387;50.998;22.340;2023-04-19T13:38:49;3.45;;;1.40;;
53503;SDS011;39387;50.998;22.340;2023-04-19T13:41:17;3.88;;;1.48;;
53503;SDS011;39387;50.998;22.340;2023-04-19T13:43:44;3.30;;;1.20;;
53503;SDS011;39387;50.998;22.340;2023-04-19T13:46:11;2.45;;;1.40;;
53503;SDS011;39387;50.998;22.340;2023-04-19T13:48:39;2.33;;;1.20;;
53503;SDS011;39387;50.998;22.340;2023-04-19T13:51:06;2.03;;;1.25;;
53503;SDS011;39387;50.998;22.340;2023-04-19T13:53:35;2.75;;;1.35;;
53503;SDS011;39387;50.998;22.340;2023-04-19T13:56:02;1.95;;;1.58;;
53503;SDS011;39387;50.998;22.340;2023-04-19T13:58:34;2.50;;;1.52;;
53503;SDS011;39387;50.998;22.340;2023-04-19T14:01:01;2.92;;;1.30;;
53503;SDS011;39387;50.998;22.340;2023-04-19T14:03:29;3.03;;;1.50;;
53503;SDS011;39387;50.998;22.340;2023-04-19T14:05:57;5.82;;;2.28;;
53503;SDS011;39387;50.998;22.340;2023-04-19T14:08:25;1.75;;;1.42;;
53503;SDS011;39387;50.998;22.340;2023-04-19T14:10:53;2.35;;;1.38;;
53503;SDS011;39387;50.998;22.340;2023-04-19T14:13:21;3.97;;;1.52;;
53503;SDS011;39387;50.998;22.340;2023-04-19T14:15:48;2.55;;;1.55;;
53503;SDS011;39387;50.998;22.340;2023-04-19T14:18:16;2.53;;;1.52;;
53503;SDS011;39387;50.998;22.340;2023-04-19T14:20:43;2.60;;;1.60;;
53503;SDS011;39387;50.998;22.340;2023-04-19T14:23:11;3.67;;;1.60;;
53503;SDS011;39387;50.998;22.340;2023-04-19T14:25:38;3.70;;;1.70;;
53503;SDS011;39387;50.998;22.340;2023-04-19T14:28:07;2.50;;;1.30;;
53503;SDS011;39387;50.998;22.340;2023-04-19T14:30:36;2.78;;;1.92;;
53503;SDS011;39387;50.998;22.340;2023-04-19T14:33:04;4.30;;;1.77;;
53503;SDS011;39387;50.998;22.340;2023-04-19T14:35:31;3.28;;;1.95;;
53503;SDS011;39387;50.998;22.340;2023-04-19T14:37:58;4.05;;;1.70;;